METAR Data
IDs: Format: Raw Decoded Include TAF

Data at: 1407 UTC 12 Dec 2018

PALG 120956Z AUTO 25007KT 9SM -SN OVC038 M09/M11 A2910 RMK AO2 SNB30 SLP861 P0000 T10941111 FZRANO $
PALG 120656Z AUTO 25009G16KT 10SM OVC080 M07/M09 A2905 RMK AO2 SNE20 SLP840 P0000 T10721089 FZRANO $
PALG 120605Z AUTO 25009KT 9SM -SN FEW024 OVC038 M07/M08 A2904 RMK AO2 P0000 FZRANO $
PALG 120556Z AUTO 23008KT 9SM -SN FEW009 BKN024 OVC038 M07/M09 A2903 RMK AO2 SLP836 P0000 60000 T10721089 11072 21100 56001 FZRANO $
PALG 120537Z AUTO 00000KT 3SM -SN BR OVC009 M08/M09 A2903 RMK AO2 P0000 FZRANO $
PALG 120533Z AUTO 00000KT 1SM -SN BR OVC009 M08/M09 A2903 RMK AO2 P0000 FZRANO $
PALG 120525Z AUTO 00000KT 1 3/4SM -SN BR OVC009 M08/M10 A2903 RMK AO2 P0000 FZRANO $
PALG 120511Z AUTO 00000KT 4SM -SN BR OVC009 M08/M10 A2903 RMK AO2 P0000 FZRANO $
PALG 120504Z AUTO 00000KT 2 1/2SM -SN BR OVC009 M09/M11 A2903 RMK AO2 VIS 1 1/4V5 P0000 FZRANO $
PALG 120456Z AUTO 00000KT 3SM -SN BR OVC009 M09/M11 A2903 RMK AO2 SNB0357 SLP836 P0000 T10891106 FZRANO $
PALG 120356Z AUTO VRB03KT 10SM OVC013 M09/M12 A2904 RMK AO2 SNB23E42 SLP838 P0000 T10941117 FZRANO $
PALG 120256Z AUTO VRB04KT 10SM OVC019 M08/M11 A2904 RMK AO2 SNB26E38 SLP839 P0000 60000 T10831111 50001 FZRANO $
PALG 120228Z AUTO 22006KT 9SM -SN BKN025 OVC039 M09/M11 A2905 RMK AO2 SNB26 P0000 FZRANO $
PALG 120156Z AUTO 22006KT 10SM BKN041 OVC120 M09/M12 A2905 RMK AO2 SLP844 T10941117 FZRANO $
PALG 120056Z AUTO 22007KT 10SM OVC110 M09/M11 A2905 RMK AO2 SLP842 T10891111 FZRANO $
PALG 112356Z AUTO 24009KT 10SM OVC110 M08/M11 A2904 RMK AO2 SNB03E14 SLP838 P0000 60000 T10831106 11067 21083 51014 FZRANO $
PALG 112256Z AUTO 24011G17KT 10SM FEW037 BKN060 OVC100 M08/M09 A2903 RMK AO2 SNB23E33 SLP835 P0000 T10781094 FZRANO $
PALG 112156Z AUTO 24010G16KT 10SM FEW055 OVC110 M08/M09 A2902 RMK AO2 SNE35 SLP831 P0000 T10781094 FZRANO $
PALG 112104Z AUTO 24010G18KT 8SM -SN FEW017 BKN046 OVC070 M07/M09 A2900 RMK AO2 P0000 FZRANO $
PALG 112056Z AUTO 24012KT 9SM -SN FEW017 BKN027 OVC045 M07/M09 A2900 RMK AO2 SLP825 P0000 60000 T10671089 51020 FZRANO $
PALG 112035Z AUTO 25010G16KT 4SM -SN BR BKN027 OVC036 M07/M08 A2900 RMK AO2 P0000 FZRANO $
PALG 112024Z AUTO 24011KT 3SM -SN BR SCT027 OVC034 M07/M08 A2899 RMK AO2 P0000 FZRANO $
PALG 112014Z AUTO 25013G18KT 2 1/2SM -SN BR FEW011 OVC036 M07/M08 A2899 RMK AO2 P0000 FZRANO $
PALG 111956Z AUTO 24011G17KT 6SM -SN BR SCT011 OVC034 M07/M08 A2898 RMK AO2 SLP819 P0000 T10671078 FZRANO $
PALG 111945Z AUTO 24011G19KT 3SM -SN BR SCT009 BKN022 OVC031 M07/M08 A2898 RMK AO2 P0000 FZRANO $
PALG 111927Z AUTO 24010KT 1 1/2SM -SN BR SCT009 BKN022 OVC030 M07/M08 A2897 RMK AO2 P0000 FZRANO $
PALG 111917Z AUTO 24010G16KT 2 1/2SM -SN BR SCT009 BKN022 OVC030 M07/M08 A2897 RMK AO2 P0000 FZRANO $
PALG 111911Z AUTO 24012KT 2 1/2SM -SN BR SCT011 OVC030 M07/M08 A2897 RMK AO2 P0000 FZRANO $
PALG 111856Z AUTO 25008KT 2 1/2SM -SN BR SCT011 BKN017 OVC028 M07/M08 A2896 RMK AO2 SLP813 P0000 T10671078 FZRANO $
PALG 111824Z AUTO 25007KT 1 3/4SM -SN BR OVC029 M07/M08 A2895 RMK AO2 P0000 FZRANO $
PALG 111805Z AUTO 25010KT 2 1/2SM -SN BR FEW009 OVC031 M07/M08 A2894 RMK AO2 P0000 FZRANO $
PALG 111756Z AUTO 24009KT 2 1/2SM -SN BR FEW009 OVC029 M07/M08 A2894 RMK AO2 SLP805 P0000 60000 T10721083 11072 21094 51014 FZRANO $
PALG 111722Z AUTO 24010G15KT 1 3/4SM -SN BR FEW009 BKN025 OVC035 M07/M08 A2893 RMK AO2 P0000 FZRANO $
PALG 111716Z AUTO 25010G15KT 2 1/2SM -SN BR SCT009 BKN026 OVC043 M07/M08 A2893 RMK AO2 P0000 FZRANO $
PALG 111710Z AUTO 25010G17KT 3SM -SN BR SCT009 BKN034 OVC043 M07/M08 A2893 RMK AO2 P0000 FZRANO $
PALG 111656Z AUTO 24012KT 3SM -SN BR BKN009 BKN031 OVC042 M07/M09 A2892 RMK AO2 SLP798 P0000 T10721089 FZRANO $
PALG 111644Z AUTO 25008G16KT 2 1/2SM -SN BR BKN009 OVC031 M07/M09 A2892 RMK AO2 P0000 FZRANO $
PALG 111637Z AUTO 25008G17KT 2SM -SN BR SCT009 OVC029 M07/M08 A2891 RMK AO2 VIS 2V2 1/2 P0000 FZRANO $
PALG 111628Z AUTO 25009KT 2 1/2SM -SN BR SCT009 OVC031 M08/M09 A2891 RMK AO2 P0000 FZRANO $
PALG 111556Z AUTO 00000KT 2SM -SN BR BKN009 OVC029 M09/M11 A2890 RMK AO2 VIS 1 3/4V3 SLP791 P0000 T10941106 FZRANO $
PALG 111554Z AUTO 00000KT 2SM -SN BR BKN009 OVC029 M09/M11 A2890 RMK AO2 VIS 1 3/4V3 P0000 FZRANO $
PALG 111547Z AUTO 00000KT 1 1/2SM -SN BR SCT009 OVC029 M09/M11 A2890 RMK AO2 P0000 FZRANO $
PALG 111514Z AUTO 00000KT 1 1/4SM -SN BR BKN027 OVC032 M09/M11 A2889 RMK AO2 P0000 FZRANO $
PALG 111456Z AUTO 00000KT 1SM -SN BR OVC021 M09/M11 A2888 RMK AO2 SLP784 P0000 60000 T10941106 53022 FZRANO $
PALG 111356Z AUTO 00000KT 1SM -SN BR OVC019 M09/M11 A2885 RMK AO2 SLP776 P0000 T10891106 FZRANO $
PALG 111308Z AUTO 25004KT 1SM -SN BR OVC015 M09/M11 A2884 RMK AO2 P0000 FZRANO $
PALG 111256Z AUTO 25004KT 1 1/4SM -SN BR BKN017 OVC023 M09/M11 A2884 RMK AO2 SLP769 P0000 T10891106 FZRANO $
PALG 111226Z AUTO 26003KT 1 1/2SM -SN BR BKN020 OVC029 M09/M11 A2883 RMK AO2 P0000 FZRANO $
PALG 111217Z AUTO 28004KT 2 1/2SM -SN BR BKN022 OVC029 M09/M11 A2883 RMK AO2 VIS 1 1/2V4 P0000 FZRANO $
PALG 111204Z AUTO 28005KT 3SM -SN BR OVC028 M09/M11 A2882 RMK AO2 P0000 FZRANO $
PALG 111156Z AUTO 28006KT 3SM -SN BR FEW019 OVC030 M09/M11 A2881 RMK AO2 SLP762 P0000 60000 T10891106 11039 21089 53023 FZRANO $
PALG 111144Z AUTO 29006KT 8SM -SN SCT012 BKN023 OVC028 M09/M11 A2880 RMK AO2 P0000 FZRANO $
PALG 111124Z AUTO 30006KT 5SM -SN BR BKN012 OVC022 M09/M11 A2879 RMK AO2 P0000 FZRANO $
PALG 111115Z AUTO 29005KT 2 1/2SM -SN BR BKN012 BKN018 OVC022 M08/M10 A2878 RMK AO2 VIS 2V5 P0000 FZRANO $
PALG 111111Z AUTO 29004KT 2 1/2SM -SN BR BKN015 OVC022 M08/M10 A2878 RMK AO2 VIS 2V4 P0000 FZRANO $
PALG 111103Z AUTO 29003KT 1 3/4SM -SN BR BKN015 OVC022 M08/M10 A2878 RMK AO2 VIS 1V3 P0000 FZRANO $
PALG 111056Z AUTO 00000KT 1SM -SN BR BKN017 OVC022 M08/M10 A2878 RMK AO2 SLP749 P0000 T10831100 FZRANO $
PALG 111017Z AUTO VRB03KT 1SM -SN BR SCT009 OVC015 M08/M09 A2876 RMK AO2 P0000 FZRANO $
PALG 111008Z AUTO 29003KT 3/4SM -SN BR OVC011 M08/M09 A2875 RMK AO2 P0000 FZRANO $
PALG 110956Z AUTO 00000KT 1/2SM SN FZFG BKN011 OVC020 M08/M09 A2875 RMK AO2 SLP739 P0000 T10781094 FZRANO $
PALG 110954Z AUTO 00000KT 1/2SM SN FZFG BKN011 OVC020 M08/M09 A2875 RMK AO2 P0000 FZRANO $
PALG 110945Z AUTO 00000KT 3/4SM -SN BR SCT014 OVC020 M08/M09 A2874 RMK AO2 P0000 FZRANO $
PALG 110931Z AUTO 30003KT 1 1/4SM -SN BR SCT012 OVC018 M07/M09 A2874 RMK AO2 P0000 FZRANO $
PALG 110929Z AUTO 28003KT 1SM -SN BR BKN012 OVC018 M07/M09 A2873 RMK AO2 P0000 FZRANO $
PALG 110903Z AUTO 00000KT 3/4SM -SN BR BKN012 OVC018 M07/M09 A2872 RMK AO2 P0000 FZRANO $
PALG 110856Z AUTO 00000KT 1SM -SN BR BKN012 OVC021 M07/M09 A2872 RMK AO2 SLP729 P0000 60000 T10721089 410171072 53022 FZRANO $
PALG 110854Z AUTO 27003KT 1SM -SN BR BKN012 OVC021 M07/M09 A2871 RMK AO2 P0000 410171072 FZRANO $
PALG 110834Z AUTO 23004KT 1 1/2SM -SN BR BKN024 OVC033 M07/M08 A2870 RMK AO2 VIS 1V2 1/2 P0000 FZRANO $
PALG 110825Z AUTO 24005KT 1 3/4SM -SN BR SCT026 OVC035 M07/M08 A2870 RMK AO2 P0000 FZRANO $
PALG 110820Z AUTO 23004KT 2SM -SN BR FEW019 BKN026 OVC035 M07/M08 A2870 RMK AO2 VIS 1 3/4V3 P0000 FZRANO $
PALG 110756Z AUTO 20004KT 7SM -SN OVC040 M07/M08 A2869 RMK AO2 SNB27 SLP719 P0000 T10671083 FZRANO $
PALG 110656Z AUTO 00000KT 10SM FEW042 BKN055 OVC070 M06/M08 A2866 RMK AO2 SLP710 T10561078 FZRANO $
PALG 110556Z AUTO 35003KT 10SM OVC055 M04/M06 A2865 RMK AO2 SLP706 60000 T10391061 11017 21039 53003 FZRANO $
PALG 110456Z AUTO 32003KT 10SM OVC050 M04/M06 A2864 RMK AO2 SNE02 SLP703 P0000 T10391061 FZRANO $
PALG 110408Z AUTO VRB05KT 10SM SCT027 SCT040 OVC065 M02/M05 A2863 RMK AO2 SNE02 P0000 FZRANO $
PALG 110356Z AUTO 07004KT 5SM -SN BR FEW019 BKN025 OVC055 M03/M04 A2863 RMK AO2 SNB00 SLP701 P0000 T10281044 FZRANO $
PALG 110352Z AUTO VRB06KT 3SM -SN BR BKN021 BKN028 OVC037 M03/M04 A2864 RMK AO2 SNB00 P0000 FZRANO $
PALG 110337Z AUTO 06006KT 1 1/4SM -SN BR BKN020 BKN025 OVC030 M02/M04 A2864 RMK AO2 VIS 1V2 1/2 SNB00 P0000 FZRANO $
PALG 110323Z AUTO VRB06KT 2 1/2SM -SN BR BKN025 BKN029 OVC042 M02/M04 A2864 RMK AO2 VIS 2V5 SNB00 P0000 FZRANO $
PALG 110256Z AUTO 07004KT 10SM SCT044 BKN055 OVC070 M02/M04 A2864 RMK AO2 SNE06 SLP703 P0000 60000 T10221044 55008 FZRANO $